Date,TemperatureHighF,TemperatureAvgF,TemperatureLowF,DewpointHighF,DewpointAvgF,DewpointLowF,HumidityHigh,HumidityAvg,HumidityLow,PressureMaxIn,PressureMinIn,WindSpeedMaxMPH,WindSpeedAvgMPH,GustSpeedMaxMPH,PrecipitationSumIn
2013-5-1,81.6,65.7,49.3,60.6,54.7,48.2,98,71,43,30.26,30.09,11,1,13,0.27
2013-5-2,78.9,65.6,53.0,56.6,50.6,43.6,85,60,40,30.27,30.15,12,1,12,0.00
2013-5-3,74.5,64.7,54.7,56.7,45.5,36.7,67,51,28,30.17,30.08,8,1,10,0.00
2013-5-4,68.7,61.6,53.7,47.9,43.0,35.7,77,52,32,30.16,30.09,9,1,10,0.00
2013-5-5,72.5,60.8,50.4,46.9,40.9,33.6,78,51,25,30.15,30.05,9,1,9,0.00
2013-5-6,76.0,59.9,41.8,52.9,44.2,37.6,89,58,38,30.11,30.01,6,0,7,0.00
2013-5-7,76.7,62.7,45.8,55.6,48.1,38.2,79,60,39,30.10,30.01,9,0,9,0.00
2013-5-8,80.3,65.7,51.6,55.0,49.3,41.2,85,58,33,30.05,29.94,7,0,7,0.00
2013-5-9,79.7,67.0,49.2,56.6,50.5,44.4,97,60,31,29.99,29.90,6,0,7,0.00
2013-5-10,66.0,53.7,39.6,61.7,50.1,37.7,98,88,46,29.92,29.75,12,1,13,0.10
2013-5-11,61.2,45.8,37.9,46.6,40.4,32.8,97,83,55,29.93,29.75,16,2,19,0.10
2013-5-12,37.9,37.7,37.4,33.2,32.9,32.7,83,83,82,29.93,29.92,4,1,4,0.00
2013-5-14,54.3,53.2,51.5,47.2,44.9,43.6,85,73,67,29.81,29.78,0,0,0,0.01
2013-5-15,79.8,74.3,65.2,53.4,49.1,44.3,52,41,33,29.80,29.74,11,2,15,0.00
2013-5-16,79.3,62.7,46.4,50.4,45.2,38.5,92,56,30,30.06,29.79,10,1,10,0.00
2013-5-17,71.7,58.3,45.1,48.6,43.7,38.8,82,60,38,30.20,30.05,6,0,8,0.00
2013-5-18,81.3,64.8,51.7,52.5,46.4,42.9,75,54,30,30.19,30.06,6,0,10,0.00
2013-5-19,88.0,70.0,51.3,65.1,56.8,46.4,87,65,44,30.07,29.88,6,1,9,0.00
2013-5-20,88.5,73.9,60.7,72.1,64.8,59.3,96,75,45,29.94,29.76,12,1,12,0.00
2013-5-21,83.9,74.5,64.4,68.6,63.4,59.8,95,70,47,29.83,29.71,8,1,10,0.00
2013-5-22,78.7,68.7,62.8,66.0,62.6,59.9,93,82,55,29.73,29.60,19,2,19,0.02
2013-5-23,63.1,50.1,39.3,59.9,48.2,38.0,96,93,89,30.18,29.67,15,1,15,0.19
2013-5-24,52.9,43.7,35.5,38.7,35.2,31.6,96,73,52,30.43,30.18,12,2,15,0.19
2013-5-25,64.2,48.5,33.2,42.0,36.6,30.6,97,67,37,30.47,30.34,9,0,11,0.00
2013-5-26,69.2,53.0,34.8,44.0,37.4,32.8,98,61,33,30.41,30.29,8,0,11,0.00
2013-5-27,65.1,50.5,36.9,49.6,41.0,29.6,96,73,34,30.32,30.07,9,1,9,0.22
2013-5-28,71.9,59.3,49.9,71.0,58.7,48.8,99,98,95,30.07,29.84,4,0,7,1.68
2013-5-29,81.5,70.3,61.7,69.3,65.3,60.8,99,86,55,30.01,29.76,13,1,13,0.18
2013-5-30,86.9,71.2,60.5,74.5,67.0,60.1,99,88,56,30.07,29.97,8,1,13,0.58
2013-5-31,81.6,72.5,66.5,70.0,67.1,65.0,96,84,65,30.02,29.85,10,1,14,0.15